Time;durP1;ratioP1;P1;durP2;ratioP2;P2;SDS_P1;SDS_P2;PMS_P1;PMS_P2;Temp;Humidity;BMP_temperature;BMP_pressure;BME280_temperature;BME280_humidity;BME280_pressure;Samples;Min_cycle;Max_cycle;Signal;HPM_P1;HPM_P2
2022/11/03 00:01:57;;;;;;;10.33;5.93;;;17.80;52.80;;;18.18;41.35;95471.41;5009835;28;20521;-54
2022/11/03 00:04:24;;;;;;;12.07;5.77;;;17.80;52.70;;;18.19;41.32;95473.06;5010306;28;20477;-55
2022/11/03 00:06:53;;;;;;;8.10;5.50;;;17.80;52.80;;;18.19;40.88;95475.72;5013956;28;20534;-55
2022/11/03 00:09:23;;;;;;;12.83;5.13;;;17.80;52.30;;;18.19;40.67;95469.59;5011405;28;20499;-58
2022/11/03 00:11:51;;;;;;;9.93;5.60;;;17.80;52.60;;;18.19;40.74;95473.06;5001476;28;20470;-54
2022/11/03 00:14:18;;;;;;;10.17;5.27;;;17.80;52.40;;;18.20;41.08;95476.56;5009772;28;20500;-55
2022/11/03 00:16:45;;;;;;;6.13;4.90;;;17.80;52.50;;;18.19;41.41;95475.72;5002500;28;20613;-54
2022/11/03 00:19:13;;;;;;;12.50;5.60;;;17.80;52.80;;;18.19;41.54;95482.91;5012946;28;20560;-53
2022/11/03 00:21:41;;;;;;;12.23;5.00;;;17.80;52.80;;;18.17;41.21;95480.41;5005402;28;20790;-55
2022/11/03 00:24:08;;;;;;;7.50;4.30;;;17.80;52.80;;;18.17;41.15;95480.41;5007307;28;20472;-54
2022/11/03 00:26:37;;;;;;;9.70;5.70;;;17.70;52.70;;;18.16;41.25;95473.41;5002642;28;20461;-53
2022/11/03 00:29:08;;;;;;;12.53;6.30;;;17.70;52.70;;;18.14;41.13;95472.75;5008995;28;20489;-54
2022/11/03 00:31:36;;;;;;;12.87;5.60;;;17.80;52.80;;;18.13;41.44;95478.25;5009419;28;20472;-54
2022/11/03 00:34:04;;;;;;;15.93;4.90;;;17.80;52.80;;;18.10;41.31;95480.25;5008617;28;20501;-54
2022/11/03 00:36:32;;;;;;;10.93;5.20;;;17.70;52.80;;;18.09;41.23;95483.94;5010642;28;20997;-55
2022/11/03 00:39:00;;;;;;;15.27;6.07;;;17.70;53.00;;;18.07;41.72;95491.22;5013686;28;20465;-54
2022/11/03 00:41:27;;;;;;;16.33;5.23;;;17.70;53.10;;;18.05;41.92;95490.59;5016846;28;20453;-54
2022/11/03 00:43:56;;;;;;;8.27;5.40;;;17.70;53.30;;;18.02;41.94;95493.59;5012883;28;20535;-55
2022/11/03 00:46:23;;;;;;;11.57;5.30;;;17.60;53.20;;;17.99;41.71;95493.09;5013481;28;20456;-54
2022/11/03 00:48:50;;;;;;;15.17;6.43;;;17.60;53.30;;;17.95;41.67;95494.44;5006214;28;20473;-54
2022/11/03 00:51:19;;;;;;;7.20;5.03;;;17.60;53.60;;;17.92;41.73;95488.47;5010794;28;20999;-54
2022/11/03 00:53:48;;;;;;;12.50;6.63;;;17.50;53.60;;;17.88;42.09;95492.47;5015615;28;20496;-56
2022/11/03 00:56:17;;;;;;;14.57;7.13;;;17.50;54.10;;;17.88;43.49;95492.47;5009010;28;21034;-54
2022/11/03 00:58:44;;;;;;;21.33;7.17;;;17.50;55.20;;;17.88;43.16;95499.59;5011245;28;20476;-55
2022/11/03 01:01:14;;;;;;;15.40;7.63;;;17.50;55.20;;;17.87;43.35;95485.44;5012744;28;20457;-56
2022/11/03 01:06:48;;;;;;;15.53;7.80;;;17.50;55.70;;;17.86;44.24;95489.09;5007547;28;20512;-57
2022/11/03 01:06:48;;;;;;;13.90;8.43;;;17.50;56.20;;;17.85;44.53;95489.28;5012274;28;20827;-56
2022/11/03 01:09:16;;;;;;;11.37;7.87;;;17.50;56.60;;;17.84;43.84;95488.44;5015780;28;20546;-54
2022/11/03 01:11:46;;;;;;;18.23;8.97;;;17.50;56.30;;;17.83;44.46;95484.13;5009299;28;20468;-55
2022/11/03 01:14:15;;;;;;;14.23;9.70;;;17.50;57.00;;;17.82;44.58;95482.47;5012011;28;20493;-54
2022/11/03 01:16:43;;;;;;;16.53;8.17;;;17.40;57.00;;;17.82;45.37;95484.28;5016944;28;20457;-53
2022/11/03 01:19:11;;;;;;;17.73;7.90;;;17.40;57.30;;;17.80;44.97;95479.16;5011964;28;20481;-56
2022/11/03 01:21:38;;;;;;;18.13;8.57;;;17.40;57.30;;;17.77;44.66;95479.47;5014328;28;20460;-55
2022/11/03 01:24:06;;;;;;;12.60;8.50;;;17.40;57.20;;;17.77;45.28;95479.47;5006091;28;20604;-56
2022/11/03 01:26:33;;;;;;;14.73;7.73;;;17.40;57.20;;;17.78;45.45;95480.31;5014685;28;20485;-53
2022/11/03 01:29:00;;;;;;;17.07;8.60;;;17.40;57.80;;;17.77;44.96;95484.81;5010995;28;21029;-55
2022/11/03 01:31:28;;;;;;;14.90;8.47;;;17.40;57.70;;;17.77;45.18;95483.94;5016237;28;20522;-55
2022/11/03 01:33:56;;;;;;;15.77;8.70;;;17.40;57.40;;;17.79;45.43;95485.47;5013934;28;20555;-54
2022/11/03 01:36:24;;;;;;;16.03;8.47;;;17.40;57.50;;;17.80;45.27;95489.78;5005931;28;20465;-54
2022/11/03 01:38:51;;;;;;;20.37;10.33;;;17.40;57.80;;;17.80;45.67;95479.16;5015281;28;20480;-56
2022/11/03 01:41:21;;;;;;;15.90;8.50;;;17.40;57.80;;;17.78;45.20;95475.81;5013586;28;20484;-54
2022/11/03 01:43:50;;;;;;;19.10;9.83;;;17.40;57.80;;;17.81;45.90;95491.44;5010076;28;20480;-54
2022/11/03 01:46:20;;;;;;;23.70;9.77;;;17.40;57.80;;;17.80;45.56;95484.47;5008312;28;20461;-55
2022/11/03 01:48:50;;;;;;;16.37;10.17;;;17.40;57.80;;;17.80;45.66;95488.94;5012973;28;21001;-56
2022/11/03 01:51:20;;;;;;;21.40;9.23;;;17.40;58.40;;;17.79;46.02;95496.09;5015310;28;20954;-56
2022/11/03 01:53:49;;;;;;;15.60;10.77;;;17.40;57.80;;;17.77;45.96;95495.44;5013863;28;20501;-55
2022/11/03 01:56:17;;;;;;;22.13;9.93;;;17.40;58.60;;;17.75;46.21;95494.75;5016042;28;20464;-53
2022/11/03 01:58:44;;;;;;;15.80;10.30;;;17.40;58.30;;;17.74;46.05;95501.09;5011286;28;21017;-56
2022/11/03 02:01:12;;;;;;;20.80;9.90;;;17.30;58.60;;;17.72;46.39;95497.75;5011750;28;20578;-54
2022/11/03 02:03:41;;;;;;;21.60;12.10;;;17.30;58.50;;;17.69;46.07;95496.28;5014136;28;20565;-55
2022/11/03 02:06:09;;;;;;;21.97;12.10;;;17.30;58.70;;;17.68;46.83;95496.47;5013266;28;21014;-56
2022/11/03 02:08:41;;;;;;;21.93;10.40;;;17.30;58.90;;;17.66;46.51;95487.78;5016990;28;20484;-55
2022/11/03 02:13:49;;;;;;;27.93;11.63;;;17.20;59.00;;;17.56;46.67;95487.97;5014352;28;20572;-54
2022/11/03 02:16:17;;;;;;;18.87;10.73;;;17.20;58.90;;;17.55;46.74;95489.81;5002125;28;20533;-54
2022/11/03 02:18:44;;;;;;;16.83;10.30;;;17.20;59.10;;;17.53;46.80;95493.63;5008200;28;20493;-55
2022/11/03 02:21:18;;;;;;;22.20;10.50;;;17.10;59.50;;;17.50;47.35;95488.66;5011958;28;20549;-57
2022/11/03 02:23:48;;;;;;;17.17;10.07;;;17.10;59.60;;;17.46;47.18;95492.63;5010679;28;20965;-54
2022/11/03 02:26:17;;;;;;;19.07;10.47;;;17.10;59.80;;;17.42;47.52;95488.66;5017649;28;20438;-55
2022/11/03 02:28:44;;;;;;;23.27;10.00;;;17.10;59.80;;;17.37;47.32;95494.47;5014046;28;20481;-54
2022/11/03 02:31:14;;;;;;;18.77;9.83;;;17.00;59.60;;;17.31;47.23;95480.00;5017035;28;20512;-55
2022/11/03 02:33:50;;;;;;;24.43;8.87;;;17.00;59.80;;;17.33;47.09;95493.16;5010750;28;20493;-56
2022/11/03 02:36:20;;;;;;;13.37;8.67;;;16.90;59.50;;;17.32;47.19;95488.81;5011706;28;20727;-54
2022/11/03 02:38:52;;;;;;;16.83;9.57;;;16.90;59.80;;;17.30;47.17;95494.28;5008813;28;20537;-54
2022/11/03 02:41:21;;;;;;;17.87;9.63;;;16.90;59.80;;;17.29;46.87;95486.50;5013207;28;20485;-53
2022/11/03 02:43:48;;;;;;;18.40;8.60;;;16.90;59.60;;;17.28;47.10;95490.16;5011845;28;20476;-54
2022/11/03 02:46:16;;;;;;;20.10;9.87;;;16.90;59.70;;;17.26;47.25;95484.16;5011672;28;20454;-54
2022/11/03 02:48:43;;;;;;;26.77;8.40;;;16.80;59.80;;;17.26;47.18;95493.00;5015059;28;20480;-56
2022/11/03 02:51:11;;;;;;;21.63;8.47;;;16.90;59.80;;;17.26;47.01;95489.47;5011970;28;20476;-56
2022/11/03 02:53:43;;;;;;;15.70;8.53;;;16.90;59.70;;;17.27;47.17;95488.50;5009143;28;20493;-54
2022/11/03 02:56:12;;;;;;;19.07;9.10;;;16.90;59.70;;;17.28;46.97;95495.47;5011760;28;20559;-55
2022/11/03 02:58:45;;;;;;;17.13;10.27;;;16.90;59.90;;;17.27;47.35;95496.47;5011705;28;20570;-54
2022/11/03 03:01:17;;;;;;;12.67;8.20;;;16.90;59.80;;;17.28;47.23;95490.97;5011997;28;20568;-53
2022/11/03 03:03:47;;;;;;;21.13;10.03;;;16.90;60.90;;;17.26;47.25;95481.50;5011335;28;20919;-54
2022/11/03 03:06:18;;;;;;;17.63;9.73;;;16.90;60.00;;;17.26;47.40;95485.00;5012807;28;20540;-55
2022/11/03 03:08:48;;;;;;;16.07;8.87;;;16.90;60.30;;;17.26;47.21;95489.47;5012688;28;20480;-54
2022/11/03 03:11:15;;;;;;;17.17;8.87;;;16.90;60.30;;;17.27;47.39;95483.16;5013272;28;20471;-54
2022/11/03 03:13:45;;;;;;;17.60;9.63;;;16.90;60.30;;;17.28;47.55;95487.50;5010095;28;20492;-54
2022/11/03 03:16:15;;;;;;;14.43;8.60;;;16.90;60.40;;;17.27;47.27;95489.31;5004950;28;20563;-54
2022/11/03 03:18:51;;;;;;;25.70;10.73;;;16.90;60.70;;;17.27;47.39;95488.50;5011437;28;21004;-54
2022/11/03 03:21:22;;;;;;;13.13;8.83;;;16.90;60.40;;;17.28;48.01;95492.81;5007531;28;20456;-54
2022/11/03 03:23:51;;;;;;;19.67;9.57;;;16.90;61.00;;;17.25;47.36;95493.16;5014655;28;20489;-55
2022/11/03 03:26:23;;;;;;;23.10;9.13;;;16.90;60.50;;;17.24;47.62;95484.31;5006350;28;20465;-56
2022/11/03 03:28:53;;;;;;;23.03;8.87;;;16.90;60.70;;;17.25;47.56;95485.19;5015593;28;21020;-55
2022/11/03 03:31:21;;;;;;;16.27;8.50;;;16.80;60.50;;;17.24;47.58;95484.31;5011557;28;20458;-56
2022/11/03 03:33:49;;;;;;;13.53;9.27;;;16.90;61.30;;;17.22;47.82;95482.84;5015528;28;20484;-54
2022/11/03 03:36:18;;;;;;;20.93;9.97;;;16.80;60.70;;;17.19;47.86;95487.47;5012170;28;20514;-56
2022/11/03 03:38:49;;;;;;;17.67;9.23;;;16.80;61.00;;;17.16;47.60;95487.81;5007120;28;20486;-56
2022/11/03 03:41:20;;;;;;;19.83;9.53;;;16.80;60.90;;;17.14;47.58;95489.81;5006535;28;20564;-55
2022/11/03 03:43:48;;;;;;;14.60;9.57;;;16.80;61.00;;;17.12;47.54;95496.31;5012214;28;20555;-56
2022/11/03 03:46:17;;;;;;;18.40;10.33;;;16.70;60.90;;;17.12;48.48;95491.00;5010160;28;20823;-54
2022/11/03 03:48:44;;;;;;;24.33;10.00;;;16.70;61.80;;;17.03;48.64;95490.97;5008649;28;20615;-54
2022/11/03 03:51:11;;;;;;;17.87;10.43;;;16.70;62.30;;;16.95;48.78;95492.81;5006845;28;20469;-55
2022/11/03 03:53:39;;;;;;;21.47;10.63;;;16.60;62.40;;;16.89;48.39;95485.47;5005620;28;20535;-53
2022/11/03 03:56:06;;;;;;;18.30;9.53;;;16.50;61.80;;;16.83;48.50;95494.91;5005873;28;20453;-55
2022/11/03 03:58:34;;;;;;;20.63;9.63;;;16.50;62.20;;;16.78;48.84;95490.06;5007023;28;20491;-55
2022/11/03 04:01:01;;;;;;;14.73;9.00;;;16.40;62.40;;;16.72;48.84;95501.34;5004108;28;20532;-55
2022/11/03 04:03:30;;;;;;;15.37;9.63;;;16.40;62.50;;;16.67;48.48;95493.03;5012191;28;20553;-55
2022/11/03 04:05:58;;;;;;;19.43;9.80;;;16.30;62.70;;;16.63;49.14;95497.00;5013076;28;20506;-54
2022/11/03 04:08:25;;;;;;;26.23;9.80;;;16.30;63.40;;;16.57;49.61;95497.66;5007517;28;20565;-55
2022/11/03 04:24:39;;;;;;;21.37;10.03;;;16.00;63.20;;;16.36;49.32;95480.34;5016962;28;20447;-54
2022/11/03 04:27:27;;;;;;;18.57;10.03;;;16.00;63.90;;;16.38;50.44;95485.47;5016113;28;20465;-56
2022/11/03 04:30:00;;;;;;;16.80;10.00;;;16.00;64.50;;;16.40;49.73;95486.16;5014159;28;20950;-55
2022/11/03 04:32:28;;;;;;;17.50;10.70;;;16.00;64.20;;;16.40;49.56;95486.97;5012645;28;20445;-55
2022/11/03 04:34:57;;;;;;;20.10;10.43;;;16.00;64.10;;;16.39;49.72;95490.63;5017653;28;20900;-60
2022/11/03 04:37:27;;;;;;;18.33;9.50;;;16.00;64.50;;;16.38;49.54;95488.97;5000576;28;21056;-54
2022/11/03 04:39:57;;;;;;;14.70;8.63;;;16.00;64.10;;;16.36;49.66;95487.44;5012193;28;20453;-54
2022/11/03 04:42:24;;;;;;;22.03;11.13;;;16.00;65.00;;;16.36;50.33;95485.66;5010491;28;20552;-54
2022/11/03 04:44:51;;;;;;;17.03;10.13;;;16.00;65.10;;;16.35;49.64;95493.78;5012848;28;20454;-53
2022/11/03 04:47:19;;;;;;;26.67;10.90;;;16.00;64.70;;;16.35;49.89;95488.47;5008893;28;20464;-55
2022/11/03 04:49:47;;;;;;;14.03;9.97;;;16.00;65.00;;;16.33;50.22;95485.13;5008632;28;20466;-54
2022/11/03 04:52:17;;;;;;;22.60;10.20;;;16.00;65.80;;;16.29;49.92;95492.56;5012541;28;21032;-53
2022/11/03 04:54:45;;;;;;;25.47;11.90;;;16.00;65.10;;;16.28;49.96;95493.56;5013744;28;20830;-55
2022/11/03 04:57:13;;;;;;;33.93;11.27;;;16.00;65.40;;;16.26;50.23;95495.53;5005509;28;20922;-54
2022/11/03 04:59:42;;;;;;;26.07;11.70;;;15.90;65.20;;;16.25;50.07;95496.53;5012530;28;20520;-54
2022/11/03 05:02:15;;;;;;;27.60;11.63;;;15.90;65.40;;;16.21;50.36;95497.84;4999734;28;20468;-55
2022/11/03 05:04:42;;;;;;;26.30;11.50;;;15.90;65.70;;;16.17;49.90;95491.19;5003861;28;20460;-55
2022/11/03 05:07:26;;;;;;;19.07;11.07;;;15.80;65.40;;;16.13;50.15;95490.69;5007406;28;20529;-57
2022/11/03 05:09:53;;;;;;;23.03;10.40;;;15.80;65.40;;;16.07;50.25;95505.41;5008209;28;20467;-56
2022/11/03 05:12:21;;;;;;;30.03;12.20;;;15.80;65.60;;;16.02;50.11;95499.75;5010392;28;20473;-54
2022/11/03 05:14:48;;;;;;;25.60;11.93;;;15.70;65.80;;;15.98;50.22;95509.00;5011184;28;20499;-56
2022/11/03 05:17:23;;;;;;;21.50;11.17;;;15.60;65.80;;;15.93;51.28;95503.34;5011355;28;20538;-56
2022/11/03 05:19:51;;;;;;;21.67;11.10;;;15.60;66.70;;;15.88;50.67;95502.97;5008162;28;20442;-60
2022/11/03 05:22:22;;;;;;;20.10;11.40;;;15.60;66.50;;;15.84;50.87;95501.63;5010178;28;20457;-55
2022/11/03 05:24:51;;;;;;;25.83;11.53;;;15.50;66.50;;;15.80;50.97;95506.44;5008863;28;20445;-54
2022/11/03 05:27:20;;;;;;;27.33;11.80;;;15.50;66.90;;;15.77;50.87;95504.91;5008069;28;20457;-54
2022/11/03 05:29:47;;;;;;;25.83;11.83;;;15.50;66.90;;;15.74;50.91;95507.03;5012382;28;20460;-56
2022/11/03 05:32:18;;;;;;;23.90;11.80;;;15.40;66.90;;;15.71;51.12;95513.47;5008103;28;20976;-57
2022/11/03 05:34:46;;;;;;;23.00;12.70;;;15.40;67.40;;;15.72;51.14;95514.28;5012428;28;21001;-57
2022/11/03 05:37:25;;;;;;;26.80;10.73;;;15.40;67.50;;;15.72;51.37;95515.16;5010972;28;20500;-54
2022/11/03 05:39:53;;;;;;;20.70;10.70;;;15.40;67.60;;;15.75;51.08;95524.59;5010204;28;20525;-55
2022/11/03 05:42:30;;;;;;;19.73;11.40;;;15.40;67.70;;;15.81;51.01;95525.81;5011147;28;20818;-56
2022/11/03 05:44:57;;;;;;;24.83;11.20;;;15.50;67.90;;;15.90;51.06;95535.50;5011081;28;20905;-56
2022/11/03 05:47:26;;;;;;;22.70;11.43;;;15.60;68.00;;;16.06;50.86;95529.44;5013716;28;20457;-54
2022/11/03 05:50:00;;;;;;;22.60;11.93;;;15.60;67.70;;;16.22;50.65;95536.66;5017281;28;20446;-53
2022/11/03 05:52:29;;;;;;;24.03;12.50;;;15.80;68.40;;;16.42;50.37;95531.94;5014611;28;20791;-56
2022/11/03 05:54:58;;;;;;;39.80;13.83;;;16.00;67.40;;;16.62;49.91;95532.50;5014860;28;20555;-54
2022/11/03 05:57:26;;;;;;;24.40;12.07;;;16.20;67.10;;;16.83;49.66;95535.56;5016273;28;20463;-55
2022/11/03 05:59:53;;;;;;;31.10;12.63;;;16.40;66.80;;;17.10;49.51;95536.34;5012561;28;20469;-54
2022/11/03 06:02:33;;;;;;;25.23;12.20;;;16.60;66.70;;;17.39;49.09;95535.84;5016128;28;20454;-56
2022/11/03 06:05:01;;;;;;;25.50;13.30;;;16.90;66.20;;;17.68;48.32;95545.16;5015344;28;20460;-55
2022/11/03 06:07:30;;;;;;;32.83;12.70;;;17.20;65.40;;;17.97;47.94;95550.97;5013985;28;20829;-54
2022/11/03 06:09:58;;;;;;;37.70;12.53;;;17.40;64.70;;;18.24;47.98;95552.44;5014863;28;20457;-55
2022/11/03 06:12:25;;;;;;;34.33;14.00;;;17.70;64.30;;;18.51;47.09;95556.50;5014762;28;20465;-57
2022/11/03 06:14:53;;;;;;;29.83;14.37;;;18.00;63.80;;;18.80;47.20;95549.72;5017641;28;20543;-55
2022/11/03 06:17:22;;;;;;;32.10;15.07;;;18.30;63.30;;;19.11;46.79;95556.94;5018990;28;20452;-55
2022/11/03 06:19:50;;;;;;;39.57;15.37;;;18.50;62.80;;;19.40;46.15;95560.75;5018598;28;20509;-54
2022/11/03 06:22:23;;;;;;;40.63;17.87;;;18.80;62.20;;;19.75;45.35;95570.00;5019390;28;20464;-55
2022/11/03 06:24:52;;;;;;;40.13;17.90;;;19.10;61.50;;;20.12;45.63;95571.00;5014352;28;20445;-55
2022/11/03 06:27:23;;;;;;;37.17;17.00;;;19.50;61.00;;;20.57;44.64;95577.22;5015593;28;20938;-55
2022/11/03 06:29:52;;;;;;;29.80;18.17;;;20.00;59.90;;;21.05;44.04;95576.84;5014270;28;20782;-56
2022/11/03 06:32:19;;;;;;;40.60;18.90;;;20.40;59.50;;;21.54;43.90;95582.53;5015606;28;20461;-57
2022/11/03 06:34:47;;;;;;;28.33;17.00;;;20.90;58.80;;;22.00;42.73;95580.28;5011679;28;20509;-56
2022/11/03 06:37:22;;;;;;;28.13;15.27;;;21.40;58.10;;;22.48;41.95;95568.03;5015315;28;20456;-56
2022/11/03 06:39:51;;;;;;;27.80;14.80;;;21.90;57.50;;;22.92;41.33;95573.03;5009853;28;20949;-56
2022/11/03 06:42:21;;;;;;;30.30;14.47;;;22.40;56.60;;;23.23;40.83;95573.59;5015484;28;20537;-57
2022/11/03 06:44:50;;;;;;;33.83;15.37;;;22.70;55.70;;;23.33;40.22;95579.44;5012547;28;20444;-55
2022/11/03 06:47:22;;;;;;;33.43;15.03;;;22.90;55.20;;;23.33;40.05;95579.44;5013274;28;20665;-57
2022/11/03 06:49:51;;;;;;;22.27;14.93;;;22.90;54.70;;;23.27;40.13;95581.06;5012466;28;20533;-55
2022/11/03 06:52:29;;;;;;;25.00;15.57;;;22.90;54.30;;;23.24;39.52;95578.78;5014532;28;20519;-54
2022/11/03 06:55:15;;;;;;;29.50;13.70;;;22.80;54.20;;;23.21;40.00;95581.84;5011415;28;20492;-55
2022/11/03 06:57:45;;;;;;;34.37;16.30;;;22.80;54.20;;;23.35;40.46;95576.53;5010707;28;20552;-56
2022/11/03 07:00:18;;;;;;;29.80;16.70;;;22.90;54.60;;;23.48;40.24;95581.09;5013017;28;20449;-55
2022/11/03 07:02:56;;;;;;;25.60;16.00;;;23.00;54.50;;;23.75;39.49;95579.28;5012747;28;20469;-54
2022/11/03 07:05:25;;;;;;;35.03;17.03;;;23.20;54.30;;;24.15;39.42;95574.81;5012418;28;20484;-55
2022/11/03 07:07:55;;;;;;;34.90;16.87;;;23.60;54.20;;;24.62;39.16;95564.00;5011211;28;20477;-55
2022/11/03 07:10:25;;;;;;;30.80;16.83;;;24.00;54.00;;;25.14;38.40;95572.09;5012555;28;21533;-56
2022/11/03 07:12:52;;;;;;;31.33;16.87;;;24.50;52.80;;;25.57;37.86;95573.38;5015013;28;20476;-55
2022/11/03 07:15:26;;;;;;;34.13;17.07;;;25.00;52.40;;;25.89;37.58;95560.72;5012571;28;20855;-54
2022/11/03 07:17:53;;;;;;;30.00;16.40;;;25.40;51.90;;;26.02;37.25;95556.28;5015518;28;20980;-57
2022/11/03 07:20:20;;;;;;;30.30;15.63;;;25.60;51.20;;;26.07;36.42;95561.84;5018517;28;20454;-58
2022/11/03 07:22:48;;;;;;;26.57;15.30;;;25.70;50.40;;;26.22;36.71;95564.22;5017271;28;20480;-55
2022/11/03 07:25:18;;;;;;;33.50;14.97;;;25.90;50.00;;;26.48;36.07;95563.16;5014990;28;21064;-56
2022/11/03 07:27:47;;;;;;;36.73;17.30;;;26.20;49.70;;;26.74;35.74;95566.63;5017038;28;20501;-55
2022/11/03 07:30:19;;;;;;;30.40;17.13;;;26.50;48.60;;;26.96;34.97;95558.94;5018722;28;20451;-55
2022/11/03 07:32:47;;;;;;;28.57;16.67;;;26.70;48.50;;;27.08;34.76;95562.53;5014127;28;20556;-55
2022/11/03 07:35:32;;;;;;;33.87;16.77;;;26.80;47.70;;;27.14;33.79;95567.00;5015203;28;20865;-55
2022/11/03 07:38:03;;;;;;;33.40;14.73;;;26.80;47.20;;;27.14;34.28;95563.47;5014382;28;20465;-56
2022/11/03 07:40:33;;;;;;;37.27;17.17;;;26.80;47.20;;;27.18;34.42;95557.38;5016593;28;20436;-56
2022/11/03 07:43:11;;;;;;;37.23;15.93;;;26.70;47.40;;;27.28;34.02;95556.03;5002642;28;20482;-57
2022/11/03 07:45:40;;;;;;;23.37;15.10;;;26.80;47.20;;;27.30;34.38;95565.56;5002047;28;20460;-56
2022/11/03 07:48:23;;;;;;;29.33;15.80;;;26.80;47.00;;;27.29;32.94;95565.78;5006419;28;20849;-55
2022/11/03 07:50:52;;;;;;;39.30;17.30;;;26.70;46.30;;;27.17;33.91;95557.63;5006131;28;20470;-55
2022/11/03 07:53:24;;;;;;;27.40;16.90;;;26.70;46.40;;;27.16;33.69;95575.69;5011148;28;21014;-55
2022/11/03 07:55:52;;;;;;;29.10;17.27;;;26.60;46.20;;;27.19;33.49;95559.03;5008828;28;20513;-56
2022/11/03 07:58:25;;;;;;;29.10;16.10;;;26.60;46.20;;;27.41;33.42;95561.28;5005387;28;20563;-54
2022/11/03 08:00:57;;;;;;;30.17;16.60;;;26.70;46.50;;;27.68;32.85;95559.00;5007747;28;20456;-55
2022/11/03 08:03:37;;;;;;;28.63;17.00;;;26.90;46.00;;;27.99;32.61;95550.91;5006780;28;20526;-60
2022/11/03 08:06:04;;;;;;;27.17;17.10;;;27.20;45.90;;;28.26;32.81;95546.69;5000254;28;20468;-55
2022/11/03 08:08:32;;;;;;;29.67;16.67;;;27.50;45.60;;;28.48;32.40;95545.28;5003782;28;20997;-55
2022/11/03 08:10:59;;;;;;;37.60;17.57;;;27.70;45.10;;;28.66;32.37;95545.19;5010100;28;20464;-57
2022/11/03 08:13:28;;;;;;;25.57;15.70;;;27.90;45.00;;;28.88;32.05;95541.88;5008604;28;20497;-58
2022/11/03 08:15:55;;;;;;;29.77;16.10;;;28.00;44.50;;;29.12;31.52;95550.75;5010838;28;20509;-57
2022/11/03 08:18:22;;;;;;;26.27;15.50;;;28.30;44.10;;;29.37;31.72;95538.78;5003876;28;20472;-56
2022/11/03 08:20:50;;;;;;;32.37;14.33;;;28.50;44.20;;;29.54;31.15;95536.94;5017333;28;20452;-58
2022/11/03 08:23:18;;;;;;;29.53;14.00;;;28.70;43.10;;;29.73;30.60;95529.44;5007107;28;20852;-54
2022/11/03 08:25:46;;;;;;;20.23;12.50;;;28.90;43.10;;;29.98;30.16;95523.63;5010753;28;20481;-56
2022/11/03 08:28:13;;;;;;;27.77;13.83;;;29.10;42.80;;;30.21;29.78;95529.97;5005098;28;21024;-55
2022/11/03 08:30:41;;;;;;;32.67;13.80;;;29.40;42.50;;;30.44;29.10;95528.97;5006874;28;20480;-58
2022/11/03 08:33:09;;;;;;;25.90;14.43;;;29.60;41.30;;;30.59;29.86;95524.84;5007794;28;20861;-57
2022/11/03 08:35:36;;;;;;;23.73;12.93;;;29.70;41.20;;;30.74;29.56;95530.50;5009772;28;20508;-58
2022/11/03 08:38:03;;;;;;;24.23;14.73;;;29.90;41.40;;;30.90;28.88;95518.72;5005874;28;20844;-58
2022/11/03 08:40:31;;;;;;;26.00;14.40;;;30.10;41.30;;;30.99;29.81;95527.31;5011691;28;20711;-58
2022/11/03 08:42:59;;;;;;;33.90;15.70;;;30.20;41.10;;;31.09;29.37;95530.16;5008078;28;20476;-57
2022/11/03 08:45:26;;;;;;;28.17;14.07;;;30.30;41.00;;;31.20;28.92;95530.25;5003183;28;20560;-58
2022/11/03 08:47:55;;;;;;;24.00;14.27;;;30.40;40.50;;;31.27;29.00;95528.19;5008898;28;21005;-54
2022/11/03 08:50:22;;;;;;;29.17;13.70;;;30.50;40.70;;;31.38;28.84;95523.69;5003371;28;20230;-56
2022/11/03 08:52:50;;;;;;;26.87;15.40;;;30.60;40.30;;;31.48;28.49;95522.94;5011997;28;20926;-54
2022/11/03 08:55:17;;;;;;;29.83;14.97;;;30.70;39.80;;;31.48;29.01;95523.78;5008372;28;20610;-55
2022/11/03 08:57:45;;;;;;;25.20;14.00;;;30.70;39.80;;;31.39;28.12;95523.41;5010814;28;20276;-58
2022/11/03 09:00:15;;;;;;;26.57;14.53;;;30.60;39.70;;;31.30;28.26;95519.50;5008088;28;20622;-55
2022/11/03 09:02:43;;;;;;;29.43;13.03;;;30.50;39.70;;;31.28;28.43;95516.25;5009474;28;20229;-55
2022/11/03 09:05:12;;;;;;;28.20;14.63;;;30.50;39.70;;;31.27;27.22;95517.31;5005585;28;20663;-57
2022/11/03 09:07:39;;;;;;;30.53;13.97;;;30.50;38.60;;;31.13;28.39;95516.88;5008676;28;20332;-54
2022/11/03 09:10:08;;;;;;;25.07;14.17;;;30.40;39.60;;;31.10;28.86;95522.81;5004057;28;20205;-57
2022/11/03 09:12:36;;;;;;;25.07;15.17;;;30.40;39.70;;;31.22;28.59;95509.09;5005999;28;20221;-58
2022/11/03 09:15:04;;;;;;;29.70;12.77;;;30.40;39.60;;;31.35;28.42;95503.25;5003891;28;20686;-58
2022/11/03 09:17:32;;;;;;;26.00;15.90;;;30.50;39.70;;;31.43;28.16;95504.69;5004127;28;20477;-54
2022/11/03 09:19:59;;;;;;;32.33;14.77;;;30.60;39.70;;;31.43;27.53;95505.53;5007762;28;20210;-55
2022/11/03 09:22:28;;;;;;;24.40;14.90;;;30.70;39.40;;;31.50;27.85;95504.50;5012854;28;20221;-57
2022/11/03 09:24:55;;;;;;;22.17;14.17;;;30.70;39.40;;;31.64;27.18;95490.25;5007933;28;20675;-54
2022/11/03 09:27:22;;;;;;;22.27;13.10;;;30.80;38.40;;;31.77;27.33;95493.63;5009549;28;20719;-52
2022/11/03 09:29:50;;;;;;;25.20;14.03;;;30.90;38.70;;;31.86;27.85;95496.69;5010890;28;20633;-56
2022/11/03 09:32:17;;;;;;;20.87;13.70;;;31.00;38.70;;;31.93;27.26;95486.41;5011952;28;20263;-55
2022/11/03 09:34:44;;;;;;;30.13;13.97;;;31.00;38.80;;;32.01;26.98;95483.22;5011590;28;20930;-54
2022/11/03 09:37:12;;;;;;;26.03;16.07;;;31.10;38.30;;;32.06;27.20;95485.16;5013003;28;20284;-58
2022/11/03 09:39:40;;;;;;;34.27;16.20;;;31.20;38.20;;;32.09;26.94;95482.75;5003735;28;20516;-56
2022/11/03 09:42:08;;;;;;;33.30;14.83;;;31.20;37.60;;;32.10;26.83;95478.97;5000319;28;20210;-58
2022/11/03 09:44:36;;;;;;;22.73;14.20;;;31.20;37.80;;;32.16;27.25;95472.47;5012123;28;20756;-56
2022/11/03 09:47:05;;;;;;;32.93;14.20;;;31.30;38.10;;;32.26;26.81;95468.19;5008857;28;20210;-57
2022/11/03 09:49:33;;;;;;;32.30;14.50;;;31.40;37.70;;;32.32;26.53;95467.13;5010056;28;20272;-57
2022/11/03 09:52:01;;;;;;;20.50;12.40;;;31.50;37.50;;;32.36;26.83;95465.50;5010441;28;20268;-54
2022/11/03 09:54:28;;;;;;;22.33;12.07;;;31.50;37.60;;;32.39;26.86;95464.97;5010839;28;20225;-55
2022/11/03 09:56:58;;;;;;;22.43;11.13;;;31.60;37.60;;;32.33;26.56;95464.13;5009762;28;20252;-56
2022/11/03 09:59:26;;;;;;;32.73;12.33;;;31.50;37.10;;;32.27;26.49;95458.91;5019291;28;20225;-57
2022/11/03 10:01:53;;;;;;;26.53;12.07;;;31.50;36.60;;;32.22;26.22;95454.25;5015965;28;20704;-56
2022/11/03 10:04:26;;;;;;;23.33;12.47;;;31.40;36.70;;;32.17;26.34;95446.88;5018971;28;20221;-54
2022/11/03 10:06:54;;;;;;;21.23;11.80;;;31.40;37.10;;;32.13;26.53;95448.50;5018810;28;20201;-56
2022/11/03 10:09:22;;;;;;;23.30;11.97;;;31.40;37.20;;;32.12;26.22;95437.88;5016155;28;20745;-58
2022/11/03 10:11:49;;;;;;;22.80;11.63;;;31.30;36.70;;;32.00;26.55;95438.03;5018100;28;20237;-55
2022/11/03 10:14:18;;;;;;;27.33;12.37;;;31.20;36.60;;;31.83;26.25;95438.16;5016567;28;20256;-53
2022/11/03 10:16:50;;;;;;;26.70;11.30;;;31.10;36.60;;;31.61;26.59;95430.13;5016384;28;20253;-54
2022/11/03 10:19:18;;;;;;;22.17;11.53;;;30.90;37.00;;;31.57;27.42;95426.25;5012544;28;20232;-54
2022/11/03 10:21:45;;;;;;;22.90;11.90;;;30.90;37.40;;;31.60;26.63;95428.47;5016206;28;20205;-53
2022/11/03 10:24:13;;;;;;;19.67;11.40;;;30.80;37.30;;;31.67;27.12;95423.63;5017296;28;20252;-54
2022/11/03 10:26:45;;;;;;;17.80;11.77;;;30.90;37.30;;;31.73;26.94;95416.31;5019227;28;20205;-55
2022/11/03 10:29:19;;;;;;;26.10;11.97;;;30.90;37.00;;;31.79;26.32;95407.97;5017200;28;20676;-53
2022/11/03 10:31:48;;;;;;;29.77;12.43;;;31.00;36.70;;;31.84;26.52;95409.06;5014753;28;20284;-56
2022/11/03 10:34:27;;;;;;;20.73;10.60;;;31.00;36.90;;;31.83;26.15;95396.56;5018549;28;20232;-57